Ide Min — PC8366 — position and weather

sailwx.info

Track history (hours):
 
Tides and Currents Weather Stations Pressure Air Temp Water Temp Dewpoint Dewpoint Depression Visibility Wind Speed Wind Dir Waves Ship Positions

Ide Min (Netherlands)

Ship's website: http://www.idemin.nl/english/english.html

Last reported at 2019-Aug-22 08:30 UTC. Time now 2019-Aug-22 08:55 UTC.
Position N 54°49' E 010°32'.

Length 40 m; draft 2.2 m.

MMSI: 244537000.

Date/timePositionNaut miles runAvg speedWind from/ knotsBaromVisibWave heightAir tempDewpointWater temp
2019-Aug-22 08:30N 54°49' E 010°32'2 4.2
2019-Aug-22 07:59N 54°51' E 010°31'0 0.0
2019-Aug-22 07:29N 54°51' E 010°31'0 0.0
2019-Aug-22 06:59N 54°51' E 010°31'0 0.0
2019-Aug-22 06:29N 54°51' E 010°31'0 0.0
2019-Aug-22 05:59N 54°51' E 010°31'0 0.0
2019-Aug-22 05:26N 54°51' E 010°31'0 0.0
2019-Aug-22 04:59N 54°51' E 010°31'0 0.0
2019-Aug-22 04:29N 54°51' E 010°31'0 0.0
2019-Aug-22 03:59N 54°51' E 010°31'0 0.0
2019-Aug-22 03:26N 54°51' E 010°31'0 0.0
2019-Aug-22 02:56N 54°51' E 010°31'0 0.0
2019-Aug-22 02:29N 54°51' E 010°31'0 0.0
2019-Aug-22 01:59N 54°51' E 010°31'0 0.0
2019-Aug-22 01:29N 54°51' E 010°31'0 0.0
2019-Aug-22 00:59N 54°51' E 010°31'0 0.0
2019-Aug-22 00:29N 54°51' E 010°31'0 0.0
2019-Aug-21 23:59N 54°51' E 010°31'0 0.0
2019-Aug-21 23:29N 54°51' E 010°31'0 0.0
2019-Aug-21 22:59N 54°51' E 010°31'0 0.0
2019-Aug-21 22:23N 54°51' E 010°31'0 0.0
2019-Aug-21 21:56N 54°51' E 010°31'0 0.0
2019-Aug-21 21:29N 54°51' E 010°31'0 0.0
2019-Aug-21 20:59N 54°51' E 010°31'0 0.0
2019-Aug-21 20:29N 54°51' E 010°31'0 0.0
2019-Aug-21 19:59N 54°51' E 010°31'0 0.0
2019-Aug-21 19:29N 54°51' E 010°31'0 0.0
2019-Aug-21 18:59N 54°51' E 010°31'0 0.0
2019-Aug-21 18:29N 54°51' E 010°31'0 0.0
2019-Aug-21 17:59N 54°51' E 010°31'0 0.0
2019-Aug-21 17:29N 54°51' E 010°31'0 0.0
2019-Aug-21 16:59N 54°51' E 010°31'0 0.0
2019-Aug-21 16:29N 54°51' E 010°31'0 0.0
2019-Aug-21 15:59N 54°51' E 010°31'0 0.0
2019-Aug-21 15:29N 54°51' E 010°31'0 0.3
2019-Aug-21 14:59N 54°52' E 010°31'2 4.2
2019-Aug-21 14:29N 54°53' E 010°34'0 0.0
2019-Aug-21 14:00N 54°53' E 010°34'2 3.3
2019-Aug-21 13:30N 54°54' E 010°32'3 5.4
2019-Aug-21 13:00N 54°56' E 010°29'3 5.2
2019-Aug-21 12:29N 54°57' E 010°24'3 5.3
2019-Aug-21 11:59N 54°58' E 010°20'19 0.5
2019-Aug-19 21:35N 54°54' E 009°47'2 0.3
2019-Aug-19 15:21N 54°53' E 009°49'3 6.7
2019-Aug-19 14:50N 54°51' E 009°53'2 6.4
2019-Aug-19 14:29N 54°49' E 009°56'3 5.8
2019-Aug-19 13:59N 54°47' E 009°59'2 4.6
2019-Aug-19 13:30N 54°45' E 010°01'4 8.0
2019-Aug-19 13:00N 54°42' E 010°04'4 7.7
2019-Aug-19 12:30N 54°38' E 010°08'5 9.1
2019-Aug-19 12:01N 54°34' E 010°10'3 6.9
2019-Aug-19 11:30N 54°31' E 010°12'3 5.5
2019-Aug-19 11:00N 54°28' E 010°13'3 5.4
2019-Aug-19 10:30N 54°25' E 010°13'3 5.1
2019-Aug-19 10:00N 54°23' E 010°12'2 3.2
2019-Aug-19 09:31N 54°22' E 010°09'0 0.0
2019-Aug-19 08:58N 54°22' E 010°09'0 0.0
2019-Aug-19 08:28N 54°22' E 010°09'0 0.0
2019-Aug-19 07:58N 54°22' E 010°09'0 0.0
2019-Aug-19 07:28N 54°22' E 010°09'0 0.0
2019-Aug-19 06:58N 54°22' E 010°09'0 0.0
2019-Aug-19 06:28N 54°22' E 010°09'0 0.0
2019-Aug-19 05:58N 54°22' E 010°09'0 0.0
2019-Aug-19 05:28N 54°22' E 010°09'0 0.0
2019-Aug-19 04:58N 54°22' E 010°09'0 0.0
2019-Aug-19 04:28N 54°22' E 010°09'0 0.0
2019-Aug-19 03:55N 54°22' E 010°09'0 0.0
2019-Aug-19 03:25N 54°22' E 010°09'0 0.0
2019-Aug-19 02:58N 54°22' E 010°09'0 0.0
2019-Aug-19 02:28N 54°22' E 010°09'0 0.0
2019-Aug-19 01:55N 54°22' E 010°09'0 0.0
2019-Aug-19 01:25N 54°22' E 010°09'0 0.0
2019-Aug-19 00:55N 54°22' E 010°09'0 0.0
2019-Aug-19 00:25N 54°22' E 010°09'0 0.0
2019-Aug-18 23:55N 54°22' E 010°09'0 0.0
2019-Aug-18 23:25N 54°22' E 010°09'0 0.0
2019-Aug-18 22:55N 54°22' E 010°09'0 0.0
2019-Aug-18 22:25N 54°22' E 010°09'0 0.0
2019-Aug-18 21:55N 54°22' E 010°09'0 0.0
2019-Aug-18 21:25N 54°22' E 010°09'0 0.0
2019-Aug-18 20:58N 54°22' E 010°09'0 0.0
2019-Aug-18 20:28N 54°22' E 010°09'0 0.0
2019-Aug-18 19:58N 54°22' E 010°09'0 0.0
2019-Aug-18 19:28N 54°22' E 010°09'0 0.0
2019-Aug-18 18:58N 54°22' E 010°09'0 0.0
2019-Aug-18 18:28N 54°22' E 010°09'0 0.0
2019-Aug-18 17:58N 54°22' E 010°09'0 0.0
2019-Aug-18 17:28N 54°22' E 010°09'0 0.0
2019-Aug-18 16:58N 54°22' E 010°09'0 0.0
2019-Aug-18 16:28N 54°22' E 010°09'0 0.0
2019-Aug-18 15:58N 54°22' E 010°09'0 0.0
2019-Aug-18 15:28N 54°22' E 010°09'0 0.0
2019-Aug-18 14:58N 54°22' E 010°09'0 0.0
2019-Aug-18 14:30N 54°22' E 010°09'0 0.0
2019-Aug-18 14:00N 54°22' E 010°09'0 0.0
2019-Aug-18 13:31N 54°22' E 010°09'0 0.0
2019-Aug-18 13:00N 54°22' E 010°09'0 0.0
2019-Aug-18 12:30N 54°22' E 010°09'0 0.0
2019-Aug-18 12:00N 54°22' E 010°09'0 0.0
2019-Aug-18 11:30N 54°22' E 010°09'0 0.0
2019-Aug-18 11:00N 54°22' E 010°09'0 0.1
2019-Aug-18 10:31N 54°22' E 010°09'1 1.7
2019-Aug-18 10:00N 54°23' E 010°10'2 4.5
2019-Aug-18 09:30N 54°24' E 010°13'0 0.0
2019-Aug-18 09:00N 54°24' E 010°13'0 0.0
2019-Aug-18 08:30N 54°24' E 010°13'0 0.0
2019-Aug-18 08:00N 54°24' E 010°13'0 0.0
2019-Aug-18 07:00N 54°24' E 010°13'0 0.0
2019-Aug-18 06:27N 54°24' E 010°13'0 0.0
2019-Aug-18 05:51N 54°24' E 010°13'0 0.0
2019-Aug-18 05:27N 54°24' E 010°13'0 0.0
2019-Aug-18 05:00N 54°24' E 010°13'0 0.0
2019-Aug-18 04:30N 54°24' E 010°13'0 0.0
2019-Aug-18 03:54N 54°24' E 010°13'0 0.0
2019-Aug-18 03:27N 54°24' E 010°13'0 0.0
2019-Aug-18 02:54N 54°24' E 010°13'0 0.0
2019-Aug-18 02:27N 54°24' E 010°13'0 0.0
2019-Aug-18 01:57N 54°24' E 010°13'0 0.0
2019-Aug-18 01:30N 54°24' E 010°13'0 0.0
2019-Aug-18 01:00N 54°24' E 010°13'0 0.0
2019-Aug-18 00:27N 54°24' E 010°13'0 0.0
2019-Aug-17 23:57N 54°24' E 010°13'0 0.0
2019-Aug-17 23:30N 54°24' E 010°13'0 0.0
2019-Aug-17 23:00N 54°24' E 010°13'0 0.0
2019-Aug-17 22:30N 54°24' E 010°13'0 0.0
2019-Aug-17 22:00N 54°24' E 010°13'0 0.0
2019-Aug-17 21:30N 54°24' E 010°13'0 0.0
2019-Aug-17 21:00N 54°24' E 010°13'0 0.0
2019-Aug-17 20:30N 54°24' E 010°13'0 0.0
2019-Aug-17 20:00N 54°24' E 010°13'0 0.0
2019-Aug-17 19:30N 54°24' E 010°13'0 0.0
2019-Aug-17 19:00N 54°24' E 010°13'0 0.0
2019-Aug-17 18:30N 54°24' E 010°13'0 0.0
2019-Aug-17 17:30N 54°24' E 010°13'0 0.0
2019-Aug-17 17:00N 54°24' E 010°13'0 0.0
2019-Aug-17 16:30N 54°24' E 010°13'0 0.0
2019-Aug-17 15:51N 54°24' E 010°13'0 0.0
2019-Aug-17 15:24N 54°24' E 010°13'0 0.0
2019-Aug-17 14:54N 54°24' E 010°13'0 0.0
2019-Aug-17 14:30N 54°24' E 010°13'1 1.5
2019-Aug-17 14:00N 54°25' E 010°13'2 4.9
2019-Aug-17 13:30N 54°26' E 010°17'3 5.2
2019-Aug-17 13:00N 54°27' E 010°21'1 2.7
2019-Aug-17 12:30N 54°28' E 010°20'3 5.2
2019-Aug-17 12:00N 54°27' E 010°25'3 6.4
2019-Aug-17 11:30N 54°26' E 010°30'4 7.1
2019-Aug-17 11:00N 54°25' E 010°36'4 7.9
2019-Aug-17 10:30N 54°25' E 010°42'4 7.7
2019-Aug-17 10:00N 54°24' E 010°49'4 7.5
2019-Aug-17 09:30N 54°24' E 010°55'4 7.1
2019-Aug-17 08:57N 54°23' E 011°02'2 3.1
2019-Aug-17 08:27N 54°22' E 010°60'0 0.8
2019-Aug-17 08:00N 54°22' E 010°59'0 0.0
2019-Aug-17 07:30N 54°22' E 010°59'0 0.0
2019-Aug-17 07:00N 54°22' E 010°59'0 0.0
2019-Aug-17 06:27N 54°22' E 010°59'0 0.0
2019-Aug-17 06:00N 54°22' E 010°59'0 0.0
2019-Aug-17 05:24N 54°22' E 010°59'0 0.0
2019-Aug-17 05:00N 54°22' E 010°59'0 0.0
2019-Aug-17 04:27N 54°22' E 010°59'0 0.0
2019-Aug-17 04:00N 54°22' E 010°59'0 0.0
2019-Aug-17 03:30N 54°22' E 010°59'0 0.0
2019-Aug-17 03:00N 54°22' E 010°59'0 0.0
2019-Aug-17 02:30N 54°22' E 010°59'0 0.0
2019-Aug-17 02:00N 54°22' E 010°59'0 0.0
2019-Aug-17 01:30N 54°22' E 010°59'0 0.0
2019-Aug-17 00:57N 54°22' E 010°59'0 0.0
2019-Aug-17 00:30N 54°22' E 010°59'0 0.0
2019-Aug-17 00:00N 54°22' E 010°59'0 0.0
2019-Aug-16 23:24N 54°22' E 010°59'0 0.0
2019-Aug-16 23:00N 54°22' E 010°59'0 0.0
2019-Aug-16 22:30N 54°22' E 010°59'0 0.0
2019-Aug-16 22:00N 54°22' E 010°59'0 0.0
2019-Aug-16 21:30N 54°22' E 010°59'0 0.0
2019-Aug-16 21:00N 54°22' E 010°59'0 0.0
2019-Aug-16 20:27N 54°22' E 010°59'0 0.0
2019-Aug-16 20:00N 54°22' E 010°59'0 0.0
2019-Aug-16 19:30N 54°22' E 010°59'0 0.0
2019-Aug-16 19:00N 54°22' E 010°59'0 0.0
2019-Aug-16 18:27N 54°22' E 010°59'0 0.0
2019-Aug-16 17:57N 54°22' E 010°59'0 0.0
2019-Aug-16 17:27N 54°22' E 010°59'0 0.0
2019-Aug-16 17:00N 54°22' E 010°59'0 0.0
2019-Aug-16 16:30N 54°22' E 010°59'0 0.0
2019-Aug-16 15:57N 54°22' E 010°59'0 0.0
2019-Aug-16 15:29N 54°22' E 010°59'1 2.5
2019-Aug-16 14:53N 54°22' E 011°02'0 0.0
2019-Aug-16 14:20N 54°22' E 011°02'0 0.0
2019-Aug-16 13:59N 54°22' E 011°02'1 3.0
2019-Aug-16 13:30N 54°24' E 011°01'4 7.4
2019-Aug-16 13:00N 54°27' E 010°57'4 7.1
2019-Aug-16 12:30N 54°29' E 010°53'4 8.2
2019-Aug-16 12:00N 54°33' E 010°49'4 8.1
2019-Aug-16 11:30N 54°36' E 010°45'2 4.6
2019-Aug-16 11:00N 54°38' E 010°43'3 5.0
2019-Aug-16 10:30N 54°41' E 010°42'3 6.8
2019-Aug-16 10:00N 54°44' E 010°39'3 6.4
2019-Aug-16 09:30N 54°46' E 010°36'3 6.7
2019-Aug-16 09:00N 54°49' E 010°34'2 4.9
2019-Aug-16 08:30N 54°51' E 010°31'0 0.2
2019-Aug-16 07:59N 54°51' E 010°31'0 0.0
2019-Aug-16 07:29N 54°51' E 010°31'0 0.0
2019-Aug-16 06:59N 54°51' E 010°31'0 0.0
2019-Aug-16 06:29N 54°51' E 010°31'0 0.0
2019-Aug-16 05:59N 54°51' E 010°31'0 0.0
2019-Aug-16 05:29N 54°51' E 010°31'0 0.0
2019-Aug-16 04:59N 54°51' E 010°31'0 0.0
2019-Aug-16 04:29N 54°51' E 010°31'0 0.0
2019-Aug-16 03:59N 54°51' E 010°31'0 0.0
2019-Aug-16 03:29N 54°51' E 010°31'0 0.0
2019-Aug-16 02:59N 54°51' E 010°31'0 0.0
2019-Aug-16 02:29N 54°51' E 010°31'0 0.0
2019-Aug-16 01:59N 54°51' E 010°31'0 0.0
2019-Aug-16 01:29N 54°51' E 010°31'0 0.0
2019-Aug-16 00:59N 54°51' E 010°31'0 0.0
2019-Aug-16 00:29N 54°51' E 010°31'0 0.0
2019-Aug-15 23:56N 54°51' E 010°31'0 0.0
2019-Aug-15 23:29N 54°51' E 010°31'0 0.0
2019-Aug-15 22:56N 54°51' E 010°31'0 0.0
2019-Aug-15 22:29N 54°51' E 010°31'0 0.0
2019-Aug-15 21:59N 54°51' E 010°31'0 0.0
2019-Aug-15 21:29N 54°51' E 010°31'0 0.0
2019-Aug-15 20:59N 54°51' E 010°31'0 0.0
2019-Aug-15 20:26N 54°51' E 010°31'0 0.0
2019-Aug-15 19:59N 54°51' E 010°31'0 0.0
2019-Aug-15 19:29N 54°51' E 010°31'0 0.0
2019-Aug-15 18:56N 54°51' E 010°31'0 0.0
2019-Aug-15 18:29N 54°51' E 010°31'0 0.0
2019-Aug-15 17:59N 54°51' E 010°31'0 0.0
2019-Aug-15 17:29N 54°51' E 010°31'0 0.0
2019-Aug-15 16:59N 54°51' E 010°31'0 0.0
2019-Aug-15 16:29N 54°51' E 010°31'0 0.0
2019-Aug-15 16:00N 54°51' E 010°31'0 0.0
2019-Aug-15 15:30N 54°51' E 010°31'0 0.0
2019-Aug-15 15:00N 54°51' E 010°31'0 0.0
2019-Aug-15 14:30N 54°51' E 010°31'0 0.0
2019-Aug-15 14:00N 54°51' E 010°31'0 0.0
2019-Aug-15 13:30N 54°51' E 010°31'0 0.0
2019-Aug-15 13:00N 54°51' E 010°31'1 2.0
2019-Aug-15 12:30N 54°51' E 010°33'3 5.6
2019-Aug-15 12:00N 54°49' E 010°36'3 7.0
2019-Aug-15 11:30N 54°45' E 010°38'3 6.7
2019-Aug-15 11:00N 54°42' E 010°41'4 7.2
2019-Aug-15 10:30N 54°41' E 010°47'4 7.8
2019-Aug-15 10:00N 54°41' E 010°54'4 8.8
2019-Aug-15 09:30N 54°40' E 011°01'4 9.0
2019-Aug-15 09:00N 54°40' E 011°09'5 9.3
2019-Aug-15 08:30N 54°39' E 011°17'2 4.6
2019-Aug-15 08:00N 54°39' E 011°21'0 0.0
2019-Aug-15 07:29N 54°39' E 011°21'0 0.0
2019-Aug-15 06:59N 54°39' E 011°21'0 0.0
2019-Aug-15 06:29N 54°39' E 011°21'0 0.0
2019-Aug-15 05:59N 54°39' E 011°21'0 0.0
2019-Aug-15 05:29N 54°39' E 011°21'0 0.0
2019-Aug-15 04:59N 54°39' E 011°21'0 0.0
2019-Aug-15 04:29N 54°39' E 011°21'0 0.0
2019-Aug-15 03:59N 54°39' E 011°21'0 0.0
2019-Aug-15 03:29N 54°39' E 011°21'0 0.0
2019-Aug-15 02:59N 54°39' E 011°21'0 0.0
2019-Aug-15 02:29N 54°39' E 011°21'0 0.0
2019-Aug-15 01:59N 54°39' E 011°21'0 0.0
2019-Aug-15 01:29N 54°39' E 011°21'0 0.0
2019-Aug-15 00:59N 54°39' E 011°21'0 0.0
2019-Aug-15 00:29N 54°39' E 011°21'0 0.0
2019-Aug-14 23:59N 54°39' E 011°21'0 0.0
2019-Aug-14 23:29N 54°39' E 011°21'0 0.0
2019-Aug-14 22:59N 54°39' E 011°21'0 0.0
2019-Aug-14 22:29N 54°39' E 011°21'0 0.0
2019-Aug-14 21:59N 54°39' E 011°21'0 0.0
2019-Aug-14 21:29N 54°39' E 011°21'0 0.0
2019-Aug-14 20:59N 54°39' E 011°21'0 0.0
2019-Aug-14 20:29N 54°39' E 011°21'0 0.0
2019-Aug-14 19:56N 54°39' E 011°21'0 0.0
2019-Aug-14 19:29N 54°39' E 011°21'0 0.0
2019-Aug-14 18:59N 54°39' E 011°21'0 0.0
2019-Aug-14 18:29N 54°39' E 011°21'0 0.0
2019-Aug-14 17:59N 54°39' E 011°21'0 0.0
2019-Aug-14 17:29N 54°39' E 011°21'0 0.0
2019-Aug-14 16:59N 54°39' E 011°21'0 0.0
2019-Aug-14 16:29N 54°39' E 011°21'0 0.0
2019-Aug-14 15:59N 54°39' E 011°21'0 0.0
2019-Aug-14 15:29N 54°39' E 011°21'0 0.0
2019-Aug-14 15:00N 54°39' E 011°21'0 0.0
2019-Aug-14 14:30N 54°39' E 011°21'1 1.3
2019-Aug-14 14:00N 54°39' E 011°21'2 4.3
2019-Aug-14 13:30N 54°37' E 011°23'3 5.2
2019-Aug-14 13:00N 54°34' E 011°23'2 5.0
2019-Aug-14 12:30N 54°32' E 011°22'3 6.4
2019-Aug-14 12:00N 54°29' E 011°21'4 6.7
2019-Aug-14 11:29N 54°26' E 011°25'3 5.7
2019-Aug-14 10:58N 54°23' E 011°26'2 5.1
2019-Aug-14 10:29N 54°21' E 011°28'3 6.3
2019-Aug-14 09:58N 54°18' E 011°32'8 6.1
2019-Aug-14 08:44N 54°13' E 011°41'2 7.0
2019-Aug-14 08:30N 54°12' E 011°43'3 1.9
2019-Aug-14 06:45N 54°09' E 011°46'0 0.0
2019-Aug-14 06:29N 54°09' E 011°46'0 0.0
2019-Aug-14 06:00N 54°09' E 011°46'0 0.0
2019-Aug-14 05:19N 54°09' E 011°46'0 0.0
2019-Aug-14 03:59N 54°09' E 011°46'0 0.0
2019-Aug-14 03:30N 54°09' E 011°46'0 0.0
2019-Aug-14 03:00N 54°09' E 011°46'0 0.0
2019-Aug-14 01:28N 54°09' E 011°46'0 0.0
2019-Aug-14 00:59N 54°09' E 011°46'0 0.0
2019-Aug-14 00:30N 54°09' E 011°46'0 0.0
2019-Aug-13 22:20N 54°09' E 011°46'0 0.0
2019-Aug-13 22:00N 54°09' E 011°46'0 0.0
2019-Aug-13 21:30N 54°09' E 011°46'0 0.0
2019-Aug-13 21:00N 54°09' E 011°46'0 0.0
2019-Aug-13 19:44N 54°09' E 011°46'0 0.0
2019-Aug-13 19:30N 54°09' E 011°46'0 0.0
2019-Aug-13 18:48N 54°09' E 011°46'0 0.0
2019-Aug-13 17:59N 54°09' E 011°46'0 0.0
2019-Aug-13 17:30N 54°09' E 011°46'0 0.0
2019-Aug-13 17:00N 54°09' E 011°46'0 0.0
2019-Aug-13 15:56N 54°09' E 011°46'0 0.6
2019-Aug-13 15:28N 54°09' E 011°47'2 3.6
2019-Aug-13 15:00N 54°11' E 011°48'3 5.1
2019-Aug-13 14:24N 54°14' E 011°49'1 1.7
2019-Aug-13 13:44N 54°15' E 011°50'1 5.0
2019-Aug-13 13:29N 54°13' E 011°51'2 4.4
2019-Aug-13 12:58N 54°11' E 011°51'3 4.4
2019-Aug-13 12:13N 54°14' E 011°54'3 6.3
2019-Aug-13 11:48N 54°16' E 011°56'4 6.7
2019-Aug-13 11:12N 54°21' E 011°56'1 6.6
2019-Aug-13 11:00N 54°22' E 011°56'6 5.0
2019-Aug-13 09:44N 54°28' E 011°55'1 5.4
2019-Aug-13 09:29N 54°30' E 011°55'2 5.0
2019-Aug-13 09:00N 54°32' E 011°55'2 2.8
2019-Aug-13 08:08N 54°34' E 011°56'0 0.0
2019-Aug-13 07:50N 54°34' E 011°56'0 0.0
2019-Aug-13 07:14N 54°34' E 011°56'0 0.0
2019-Aug-13 06:38N 54°34' E 011°56'0 0.0
2019-Aug-13 06:29N 54°34' E 011°56'0 0.0
2019-Aug-13 05:56N 54°34' E 011°56'0 0.0
2019-Aug-13 05:23N 54°34' E 011°56'0 0.0
2019-Aug-13 04:59N 54°34' E 011°56'0 0.0
2019-Aug-13 04:23N 54°34' E 011°56'0 0.0
2019-Aug-13 03:44N 54°34' E 011°56'0 0.0
2019-Aug-13 03:29N 54°34' E 011°56'0 0.0
2019-Aug-13 02:38N 54°34' E 011°56'0 0.0
2019-Aug-13 01:59N 54°34' E 011°56'0 0.0
2019-Aug-13 01:26N 54°34' E 011°56'0 0.0
2019-Aug-13 00:56N 54°34' E 011°56'0 0.0
2019-Aug-13 00:14N 54°34' E 011°56'0 0.0
2019-Aug-12 23:53N 54°34' E 011°56'0 0.0
2019-Aug-12 23:23N 54°34' E 011°56'0 0.0
2019-Aug-12 22:59N 54°34' E 011°56'0 0.0
2019-Aug-12 22:29N 54°34' E 011°56'0 0.0
2019-Aug-12 21:26N 54°34' E 011°56'0 0.0
2019-Aug-12 20:44N 54°34' E 011°56'0 0.0
2019-Aug-12 20:26N 54°34' E 011°56'0 0.0
2019-Aug-12 19:56N 54°34' E 011°56'0 0.0
2019-Aug-12 19:26N 54°34' E 011°56'0 0.0
2019-Aug-12 18:59N 54°34' E 011°56'0 0.2
2019-Aug-12 18:30N 54°34' E 011°56'2 4.2
2019-Aug-12 17:58N 54°32' E 011°58'2 5.1
2019-Aug-12 17:30N 54°31' E 012°01'5 4.0
2019-Aug-12 16:12N 54°26' E 012°01'1 5.8
2019-Aug-12 15:57N 54°25' E 011°60'2 3.7
2019-Aug-12 15:23N 54°22' E 011°60'1 3.9
2019-Aug-12 15:00N 54°21' E 012°01'2 3.3
2019-Aug-12 14:28N 54°20' E 012°02'4 4.1
2019-Aug-12 13:29N 54°16' E 012°05'2 5.0
2019-Aug-12 13:00N 54°13' E 012°05'3 5.1
2019-Aug-12 12:29N 54°11' E 012°06'3 5.0
2019-Aug-12 11:56N 54°08' E 012°06'2 5.5
2019-Aug-12 11:30N 54°06' E 012°07'1 0.4
2019-Aug-12 10:12N 54°06' E 012°08'0 0.0
2019-Aug-12 10:00N 54°06' E 012°08'0 0.0
2019-Aug-12 09:12N 54°06' E 012°08'0 0.0
2019-Aug-12 09:00N 54°06' E 012°08'0 0.0
2019-Aug-12 08:30N 54°06' E 012°08'  
Track history (hours):
 
Tides and Currents Weather Stations Pressure Air Temp Water Temp Dewpoint Dewpoint Depression Visibility Wind Speed Wind Dir Waves Ship Positions

Ide Min (Netherlands)

Ship's website: http://www.idemin.nl/english/english.html

Last reported at 2019-Aug-22 08:30 UTC. Time now 2019-Aug-22 08:55 UTC.
Position N 54°49' E 010°32'.

Length 40 m; draft 2.2 m.

MMSI: 244537000.

Date/timePositionNaut miles runAvg speedWind from/ knotsBaromVisibWave heightAir tempDewpointWater temp
2019-Aug-22 08:30N 54°49' E 010°32'2 4.2
2019-Aug-22 07:59N 54°51' E 010°31'0 0.0
2019-Aug-22 07:29N 54°51' E 010°31'0 0.0
2019-Aug-22 06:59N 54°51' E 010°31'0 0.0
2019-Aug-22 06:29N 54°51' E 010°31'0 0.0
2019-Aug-22 05:59N 54°51' E 010°31'0 0.0
2019-Aug-22 05:26N 54°51' E 010°31'0 0.0
2019-Aug-22 04:59N 54°51' E 010°31'0 0.0
2019-Aug-22 04:29N 54°51' E 010°31'0 0.0
2019-Aug-22 03:59N 54°51' E 010°31'0 0.0
2019-Aug-22 03:26N 54°51' E 010°31'0 0.0
2019-Aug-22 02:56N 54°51' E 010°31'0 0.0
2019-Aug-22 02:29N 54°51' E 010°31'0 0.0
2019-Aug-22 01:59N 54°51' E 010°31'0 0.0
2019-Aug-22 01:29N 54°51' E 010°31'0 0.0
2019-Aug-22 00:59N 54°51' E 010°31'0 0.0
2019-Aug-22 00:29N 54°51' E 010°31'0 0.0
2019-Aug-21 23:59N 54°51' E 010°31'0 0.0
2019-Aug-21 23:29N 54°51' E 010°31'0 0.0
2019-Aug-21 22:59N 54°51' E 010°31'0 0.0
2019-Aug-21 22:23N 54°51' E 010°31'0 0.0
2019-Aug-21 21:56N 54°51' E 010°31'0 0.0
2019-Aug-21 21:29N 54°51' E 010°31'0 0.0
2019-Aug-21 20:59N 54°51' E 010°31'0 0.0
2019-Aug-21 20:29N 54°51' E 010°31'0 0.0
2019-Aug-21 19:59N 54°51' E 010°31'0 0.0
2019-Aug-21 19:29N 54°51' E 010°31'0 0.0
2019-Aug-21 18:59N 54°51' E 010°31'0 0.0
2019-Aug-21 18:29N 54°51' E 010°31'0 0.0
2019-Aug-21 17:59N 54°51' E 010°31'0 0.0
2019-Aug-21 17:29N 54°51' E 010°31'0 0.0
2019-Aug-21 16:59N 54°51' E 010°31'0 0.0
2019-Aug-21 16:29N 54°51' E 010°31'0 0.0
2019-Aug-21 15:59N 54°51' E 010°31'0 0.0
2019-Aug-21 15:29N 54°51' E 010°31'0 0.3
2019-Aug-21 14:59N 54°52' E 010°31'2 4.2
2019-Aug-21 14:29N 54°53' E 010°34'0 0.0
2019-Aug-21 14:00N 54°53' E 010°34'2 3.3
2019-Aug-21 13:30N 54°54' E 010°32'3 5.4
2019-Aug-21 13:00N 54°56' E 010°29'3 5.2
2019-Aug-21 12:29N 54°57' E 010°24'3 5.3
2019-Aug-21 11:59N 54°58' E 010°20'19 0.5
2019-Aug-19 21:35N 54°54' E 009°47'2 0.3
2019-Aug-19 15:21N 54°53' E 009°49'3 6.7
2019-Aug-19 14:50N 54°51' E 009°53'2 6.4
2019-Aug-19 14:29N 54°49' E 009°56'3 5.8
2019-Aug-19 13:59N 54°47' E 009°59'2 4.6
2019-Aug-19 13:30N 54°45' E 010°01'4 8.0
2019-Aug-19 13:00N 54°42' E 010°04'4 7.7
2019-Aug-19 12:30N 54°38' E 010°08'5 9.1
2019-Aug-19 12:01N 54°34' E 010°10'3 6.9
2019-Aug-19 11:30N 54°31' E 010°12'3 5.5
2019-Aug-19 11:00N 54°28' E 010°13'3 5.4
2019-Aug-19 10:30N 54°25' E 010°13'3 5.1
2019-Aug-19 10:00N 54°23' E 010°12'2 3.2
2019-Aug-19 09:31N 54°22' E 010°09'0 0.0
2019-Aug-19 08:58N 54°22' E 010°09'0 0.0
2019-Aug-19 08:28N 54°22' E 010°09'0 0.0
2019-Aug-19 07:58N 54°22' E 010°09'0 0.0
2019-Aug-19 07:28N 54°22' E 010°09'0 0.0
2019-Aug-19 06:58N 54°22' E 010°09'0 0.0
2019-Aug-19 06:28N 54°22' E 010°09'0 0.0
2019-Aug-19 05:58N 54°22' E 010°09'0 0.0
2019-Aug-19 05:28N 54°22' E 010°09'0 0.0
2019-Aug-19 04:58N 54°22' E 010°09'0 0.0
2019-Aug-19 04:28N 54°22' E 010°09'0 0.0
2019-Aug-19 03:55N 54°22' E 010°09'0 0.0
2019-Aug-19 03:25N 54°22' E 010°09'0 0.0
2019-Aug-19 02:58N 54°22' E 010°09'0 0.0
2019-Aug-19 02:28N 54°22' E 010°09'0 0.0
2019-Aug-19 01:55N 54°22' E 010°09'0 0.0
2019-Aug-19 01:25N 54°22' E 010°09'0 0.0
2019-Aug-19 00:55N 54°22' E 010°09'0 0.0
2019-Aug-19 00:25N 54°22' E 010°09'0 0.0
2019-Aug-18 23:55N 54°22' E 010°09'0 0.0
2019-Aug-18 23:25N 54°22' E 010°09'0 0.0
2019-Aug-18 22:55N 54°22' E 010°09'0 0.0
2019-Aug-18 22:25N 54°22' E 010°09'0 0.0
2019-Aug-18 21:55N 54°22' E 010°09'0 0.0
2019-Aug-18 21:25N 54°22' E 010°09'0 0.0
2019-Aug-18 20:58N 54°22' E 010°09'0 0.0
2019-Aug-18 20:28N 54°22' E 010°09'0 0.0
2019-Aug-18 19:58N 54°22' E 010°09'0 0.0
2019-Aug-18 19:28N 54°22' E 010°09'0 0.0
2019-Aug-18 18:58N 54°22' E 010°09'0 0.0
2019-Aug-18 18:28N 54°22' E 010°09'0 0.0
2019-Aug-18 17:58N 54°22' E 010°09'0 0.0
2019-Aug-18 17:28N 54°22' E 010°09'0 0.0
2019-Aug-18 16:58N 54°22' E 010°09'0 0.0
2019-Aug-18 16:28N 54°22' E 010°09'0 0.0
2019-Aug-18 15:58N 54°22' E 010°09'0 0.0
2019-Aug-18 15:28N 54°22' E 010°09'0 0.0
2019-Aug-18 14:58N 54°22' E 010°09'0 0.0
2019-Aug-18 14:30N 54°22' E 010°09'0 0.0
2019-Aug-18 14:00N 54°22' E 010°09'0 0.0
2019-Aug-18 13:31N 54°22' E 010°09'0 0.0
2019-Aug-18 13:00N 54°22' E 010°09'0 0.0
2019-Aug-18 12:30N 54°22' E 010°09'0 0.0
2019-Aug-18 12:00N 54°22' E 010°09'0 0.0
2019-Aug-18 11:30N 54°22' E 010°09'0 0.0
2019-Aug-18 11:00N 54°22' E 010°09'0 0.1
2019-Aug-18 10:31N 54°22' E 010°09'1 1.7
2019-Aug-18 10:00N 54°23' E 010°10'2 4.5
2019-Aug-18 09:30N 54°24' E 010°13'0 0.0
2019-Aug-18 09:00N 54°24' E 010°13'0 0.0
2019-Aug-18 08:30N 54°24' E 010°13'0 0.0
2019-Aug-18 08:00N 54°24' E 010°13'0 0.0
2019-Aug-18 07:00N 54°24' E 010°13'0 0.0
2019-Aug-18 06:27N 54°24' E 010°13'0 0.0
2019-Aug-18 05:51N 54°24' E 010°13'0 0.0
2019-Aug-18 05:27N 54°24' E 010°13'0 0.0
2019-Aug-18 05:00N 54°24' E 010°13'0 0.0
2019-Aug-18 04:30N 54°24' E 010°13'0 0.0
2019-Aug-18 03:54N 54°24' E 010°13'0 0.0
2019-Aug-18 03:27N 54°24' E 010°13'0 0.0
2019-Aug-18 02:54N 54°24' E 010°13'0 0.0
2019-Aug-18 02:27N 54°24' E 010°13'0 0.0
2019-Aug-18 01:57N 54°24' E 010°13'0 0.0
2019-Aug-18 01:30N 54°24' E 010°13'0 0.0
2019-Aug-18 01:00N 54°24' E 010°13'0 0.0
2019-Aug-18 00:27N 54°24' E 010°13'0 0.0
2019-Aug-17 23:57N 54°24' E 010°13'0 0.0
2019-Aug-17 23:30N 54°24' E 010°13'0 0.0
2019-Aug-17 23:00N 54°24' E 010°13'0 0.0
2019-Aug-17 22:30N 54°24' E 010°13'0 0.0
2019-Aug-17 22:00N 54°24' E 010°13'0 0.0
2019-Aug-17 21:30N 54°24' E 010°13'0 0.0
2019-Aug-17 21:00N 54°24' E 010°13'0 0.0
2019-Aug-17 20:30N 54°24' E 010°13'0 0.0
2019-Aug-17 20:00N 54°24' E 010°13'0 0.0
2019-Aug-17 19:30N 54°24' E 010°13'0 0.0
2019-Aug-17 19:00N 54°24' E 010°13'0 0.0
2019-Aug-17 18:30N 54°24' E 010°13'0 0.0
2019-Aug-17 17:30N 54°24' E 010°13'0 0.0
2019-Aug-17 17:00N 54°24' E 010°13'0 0.0
2019-Aug-17 16:30N 54°24' E 010°13'0 0.0
2019-Aug-17 15:51N 54°24' E 010°13'0 0.0
2019-Aug-17 15:24N 54°24' E 010°13'0 0.0
2019-Aug-17 14:54N 54°24' E 010°13'0 0.0
2019-Aug-17 14:30N 54°24' E 010°13'1 1.5
2019-Aug-17 14:00N 54°25' E 010°13'2 4.9
2019-Aug-17 13:30N 54°26' E 010°17'3 5.2
2019-Aug-17 13:00N 54°27' E 010°21'1 2.7
2019-Aug-17 12:30N 54°28' E 010°20'3 5.2
2019-Aug-17 12:00N 54°27' E 010°25'3 6.4
2019-Aug-17 11:30N 54°26' E 010°30'4 7.1
2019-Aug-17 11:00N 54°25' E 010°36'4 7.9
2019-Aug-17 10:30N 54°25' E 010°42'4 7.7
2019-Aug-17 10:00N 54°24' E 010°49'4 7.5
2019-Aug-17 09:30N 54°24' E 010°55'4 7.1
2019-Aug-17 08:57N 54°23' E 011°02'2 3.1
2019-Aug-17 08:27N 54°22' E 010°60'0 0.8
2019-Aug-17 08:00N 54°22' E 010°59'0 0.0
2019-Aug-17 07:30N 54°22' E 010°59'0 0.0
2019-Aug-17 07:00N 54°22' E 010°59'0 0.0
2019-Aug-17 06:27N 54°22' E 010°59'0 0.0
2019-Aug-17 06:00N 54°22' E 010°59'0 0.0
2019-Aug-17 05:24N 54°22' E 010°59'0 0.0
2019-Aug-17 05:00N 54°22' E 010°59'0 0.0
2019-Aug-17 04:27N 54°22' E 010°59'0 0.0
2019-Aug-17 04:00N 54°22' E 010°59'0 0.0
2019-Aug-17 03:30N 54°22' E 010°59'0 0.0
2019-Aug-17 03:00N 54°22' E 010°59'0 0.0
2019-Aug-17 02:30N 54°22' E 010°59'0 0.0
2019-Aug-17 02:00N 54°22' E 010°59'0 0.0
2019-Aug-17 01:30N 54°22' E 010°59'0 0.0
2019-Aug-17 00:57N 54°22' E 010°59'0 0.0
2019-Aug-17 00:30N 54°22' E 010°59'0 0.0
2019-Aug-17 00:00N 54°22' E 010°59'0 0.0
2019-Aug-16 23:24N 54°22' E 010°59'0 0.0
2019-Aug-16 23:00N 54°22' E 010°59'0 0.0
2019-Aug-16 22:30N 54°22' E 010°59'0 0.0
2019-Aug-16 22:00N 54°22' E 010°59'0 0.0
2019-Aug-16 21:30N 54°22' E 010°59'0 0.0
2019-Aug-16 21:00N 54°22' E 010°59'0 0.0
2019-Aug-16 20:27N 54°22' E 010°59'0 0.0
2019-Aug-16 20:00N 54°22' E 010°59'0 0.0
2019-Aug-16 19:30N 54°22' E 010°59'0 0.0
2019-Aug-16 19:00N 54°22' E 010°59'0 0.0
2019-Aug-16 18:27N 54°22' E 010°59'0 0.0
2019-Aug-16 17:57N 54°22' E 010°59'0 0.0
2019-Aug-16 17:27N 54°22' E 010°59'0 0.0
2019-Aug-16 17:00N 54°22' E 010°59'0 0.0
2019-Aug-16 16:30N 54°22' E 010°59'0 0.0
2019-Aug-16 15:57N 54°22' E 010°59'0 0.0
2019-Aug-16 15:29N 54°22' E 010°59'1 2.5
2019-Aug-16 14:53N 54°22' E 011°02'0 0.0
2019-Aug-16 14:20N 54°22' E 011°02'0 0.0
2019-Aug-16 13:59N 54°22' E 011°02'1 3.0
2019-Aug-16 13:30N 54°24' E 011°01'4 7.4
2019-Aug-16 13:00N 54°27' E 010°57'4 7.1
2019-Aug-16 12:30N 54°29' E 010°53'4 8.2
2019-Aug-16 12:00N 54°33' E 010°49'4 8.1
2019-Aug-16 11:30N 54°36' E 010°45'2 4.6
2019-Aug-16 11:00N 54°38' E 010°43'3 5.0
2019-Aug-16 10:30N 54°41' E 010°42'3 6.8
2019-Aug-16 10:00N 54°44' E 010°39'3 6.4
2019-Aug-16 09:30N 54°46' E 010°36'3 6.7
2019-Aug-16 09:00N 54°49' E 010°34'2 4.9
2019-Aug-16 08:30N 54°51' E 010°31'0 0.2
2019-Aug-16 07:59N 54°51' E 010°31'0 0.0
2019-Aug-16 07:29N 54°51' E 010°31'0 0.0
2019-Aug-16 06:59N 54°51' E 010°31'0 0.0
2019-Aug-16 06:29N 54°51' E 010°31'0 0.0
2019-Aug-16 05:59N 54°51' E 010°31'0 0.0
2019-Aug-16 05:29N 54°51' E 010°31'0 0.0
2019-Aug-16 04:59N 54°51' E 010°31'0 0.0
2019-Aug-16 04:29N 54°51' E 010°31'0 0.0
2019-Aug-16 03:59N 54°51' E 010°31'0 0.0
2019-Aug-16 03:29N 54°51' E 010°31'0 0.0
2019-Aug-16 02:59N 54°51' E 010°31'0 0.0
2019-Aug-16 02:29N 54°51' E 010°31'0 0.0
2019-Aug-16 01:59N 54°51' E 010°31'0 0.0
2019-Aug-16 01:29N 54°51' E 010°31'0 0.0
2019-Aug-16 00:59N 54°51' E 010°31'0 0.0
2019-Aug-16 00:29N 54°51' E 010°31'0 0.0
2019-Aug-15 23:56N 54°51' E 010°31'0 0.0
2019-Aug-15 23:29N 54°51' E 010°31'0 0.0
2019-Aug-15 22:56N 54°51' E 010°31'0 0.0
2019-Aug-15 22:29N 54°51' E 010°31'0 0.0
2019-Aug-15 21:59N 54°51' E 010°31'0 0.0
2019-Aug-15 21:29N 54°51' E 010°31'0 0.0
2019-Aug-15 20:59N 54°51' E 010°31'0 0.0
2019-Aug-15 20:26N 54°51' E 010°31'0 0.0
2019-Aug-15 19:59N 54°51' E 010°31'0 0.0
2019-Aug-15 19:29N 54°51' E 010°31'0 0.0
2019-Aug-15 18:56N 54°51' E 010°31'0 0.0
2019-Aug-15 18:29N 54°51' E 010°31'0 0.0
2019-Aug-15 17:59N 54°51' E 010°31'0 0.0
2019-Aug-15 17:29N 54°51' E 010°31'0 0.0
2019-Aug-15 16:59N 54°51' E 010°31'0 0.0
2019-Aug-15 16:29N 54°51' E 010°31'0 0.0
2019-Aug-15 16:00N 54°51' E 010°31'0 0.0
2019-Aug-15 15:30N 54°51' E 010°31'0 0.0
2019-Aug-15 15:00N 54°51' E 010°31'0 0.0
2019-Aug-15 14:30N 54°51' E 010°31'0 0.0
2019-Aug-15 14:00N 54°51' E 010°31'0 0.0
2019-Aug-15 13:30N 54°51' E 010°31'0 0.0
2019-Aug-15 13:00N 54°51' E 010°31'1 2.0
2019-Aug-15 12:30N 54°51' E 010°33'3 5.6
2019-Aug-15 12:00N 54°49' E 010°36'3 7.0
2019-Aug-15 11:30N 54°45' E 010°38'3 6.7
2019-Aug-15 11:00N 54°42' E 010°41'4 7.2
2019-Aug-15 10:30N 54°41' E 010°47'4 7.8
2019-Aug-15 10:00N 54°41' E 010°54'4 8.8
2019-Aug-15 09:30N 54°40' E 011°01'4 9.0
2019-Aug-15 09:00N 54°40' E 011°09'5 9.3
2019-Aug-15 08:30N 54°39' E 011°17'2 4.6
2019-Aug-15 08:00N 54°39' E 011°21'0 0.0
2019-Aug-15 07:29N 54°39' E 011°21'0 0.0
2019-Aug-15 06:59N 54°39' E 011°21'0 0.0
2019-Aug-15 06:29N 54°39' E 011°21'0 0.0
2019-Aug-15 05:59N 54°39' E 011°21'0 0.0
2019-Aug-15 05:29N 54°39' E 011°21'0 0.0
2019-Aug-15 04:59N 54°39' E 011°21'0 0.0
2019-Aug-15 04:29N 54°39' E 011°21'0 0.0
2019-Aug-15 03:59N 54°39' E 011°21'0 0.0
2019-Aug-15 03:29N 54°39' E 011°21'0 0.0
2019-Aug-15 02:59N 54°39' E 011°21'0 0.0
2019-Aug-15 02:29N 54°39' E 011°21'0 0.0
2019-Aug-15 01:59N 54°39' E 011°21'0 0.0
2019-Aug-15 01:29N 54°39' E 011°21'0 0.0
2019-Aug-15 00:59N 54°39' E 011°21'0 0.0
2019-Aug-15 00:29N 54°39' E 011°21'0 0.0
2019-Aug-14 23:59N 54°39' E 011°21'0 0.0
2019-Aug-14 23:29N 54°39' E 011°21'0 0.0
2019-Aug-14 22:59N 54°39' E 011°21'0 0.0
2019-Aug-14 22:29N 54°39' E 011°21'0 0.0
2019-Aug-14 21:59N 54°39' E 011°21'0 0.0
2019-Aug-14 21:29N 54°39' E 011°21'0 0.0
2019-Aug-14 20:59N 54°39' E 011°21'0 0.0
2019-Aug-14 20:29N 54°39' E 011°21'0 0.0
2019-Aug-14 19:56N 54°39' E 011°21'0 0.0
2019-Aug-14 19:29N 54°39' E 011°21'0 0.0
2019-Aug-14 18:59N 54°39' E 011°21'0 0.0
2019-Aug-14 18:29N 54°39' E 011°21'0 0.0
2019-Aug-14 17:59N 54°39' E 011°21'0 0.0
2019-Aug-14 17:29N 54°39' E 011°21'0 0.0
2019-Aug-14 16:59N 54°39' E 011°21'0 0.0
2019-Aug-14 16:29N 54°39' E 011°21'0 0.0
2019-Aug-14 15:59N 54°39' E 011°21'0 0.0
2019-Aug-14 15:29N 54°39' E 011°21'0 0.0
2019-Aug-14 15:00N 54°39' E 011°21'0 0.0
2019-Aug-14 14:30N 54°39' E 011°21'1 1.3
2019-Aug-14 14:00N 54°39' E 011°21'2 4.3
2019-Aug-14 13:30N 54°37' E 011°23'3 5.2
2019-Aug-14 13:00N 54°34' E 011°23'2 5.0
2019-Aug-14 12:30N 54°32' E 011°22'3 6.4
2019-Aug-14 12:00N 54°29' E 011°21'4 6.7
2019-Aug-14 11:29N 54°26' E 011°25'3 5.7
2019-Aug-14 10:58N 54°23' E 011°26'2 5.1
2019-Aug-14 10:29N 54°21' E 011°28'3 6.3
2019-Aug-14 09:58N 54°18' E 011°32'8 6.1
2019-Aug-14 08:44N 54°13' E 011°41'2 7.0
2019-Aug-14 08:30N 54°12' E 011°43'3 1.9
2019-Aug-14 06:45N 54°09' E 011°46'0 0.0
2019-Aug-14 06:29N 54°09' E 011°46'0 0.0
2019-Aug-14 06:00N 54°09' E 011°46'0 0.0
2019-Aug-14 05:19N 54°09' E 011°46'0 0.0
2019-Aug-14 03:59N 54°09' E 011°46'0 0.0
2019-Aug-14 03:30N 54°09' E 011°46'0 0.0
2019-Aug-14 03:00N 54°09' E 011°46'0 0.0
2019-Aug-14 01:28N 54°09' E 011°46'0 0.0
2019-Aug-14 00:59N 54°09' E 011°46'0 0.0
2019-Aug-14 00:30N 54°09' E 011°46'0 0.0
2019-Aug-13 22:20N 54°09' E 011°46'0 0.0
2019-Aug-13 22:00N 54°09' E 011°46'0 0.0
2019-Aug-13 21:30N 54°09' E 011°46'0 0.0
2019-Aug-13 21:00N 54°09' E 011°46'0 0.0
2019-Aug-13 19:44N 54°09' E 011°46'0 0.0
2019-Aug-13 19:30N 54°09' E 011°46'0 0.0
2019-Aug-13 18:48N 54°09' E 011°46'0 0.0
2019-Aug-13 17:59N 54°09' E 011°46'0 0.0
2019-Aug-13 17:30N 54°09' E 011°46'0 0.0
2019-Aug-13 17:00N 54°09' E 011°46'0 0.0
2019-Aug-13 15:56N 54°09' E 011°46'0 0.6
2019-Aug-13 15:28N 54°09' E 011°47'2 3.6
2019-Aug-13 15:00N 54°11' E 011°48'3 5.1
2019-Aug-13 14:24N 54°14' E 011°49'1 1.7
2019-Aug-13 13:44N 54°15' E 011°50'1 5.0
2019-Aug-13 13:29N 54°13' E 011°51'2 4.4
2019-Aug-13 12:58N 54°11' E 011°51'3 4.4
2019-Aug-13 12:13N 54°14' E 011°54'3 6.3
2019-Aug-13 11:48N 54°16' E 011°56'4 6.7
2019-Aug-13 11:12N 54°21' E 011°56'1 6.6
2019-Aug-13 11:00N 54°22' E 011°56'6 5.0
2019-Aug-13 09:44N 54°28' E 011°55'1 5.4
2019-Aug-13 09:29N 54°30' E 011°55'2 5.0
2019-Aug-13 09:00N 54°32' E 011°55'2 2.8
2019-Aug-13 08:08N 54°34' E 011°56'0 0.0
2019-Aug-13 07:50N 54°34' E 011°56'0 0.0
2019-Aug-13 07:14N 54°34' E 011°56'0 0.0
2019-Aug-13 06:38N 54°34' E 011°56'0 0.0
2019-Aug-13 06:29N 54°34' E 011°56'0 0.0
2019-Aug-13 05:56N 54°34' E 011°56'0 0.0
2019-Aug-13 05:23N 54°34' E 011°56'0 0.0
2019-Aug-13 04:59N 54°34' E 011°56'0 0.0
2019-Aug-13 04:23N 54°34' E 011°56'0 0.0
2019-Aug-13 03:44N 54°34' E 011°56'0 0.0
2019-Aug-13 03:29N 54°34' E 011°56'0 0.0
2019-Aug-13 02:38N 54°34' E 011°56'0 0.0
2019-Aug-13 01:59N 54°34' E 011°56'0 0.0
2019-Aug-13 01:26N 54°34' E 011°56'0 0.0
2019-Aug-13 00:56N 54°34' E 011°56'0 0.0
2019-Aug-13 00:14N 54°34' E 011°56'0 0.0
2019-Aug-12 23:53N 54°34' E 011°56'0 0.0
2019-Aug-12 23:23N 54°34' E 011°56'0 0.0
2019-Aug-12 22:59N 54°34' E 011°56'0 0.0
2019-Aug-12 22:29N 54°34' E 011°56'0 0.0
2019-Aug-12 21:26N 54°34' E 011°56'0 0.0
2019-Aug-12 20:44N 54°34' E 011°56'0 0.0
2019-Aug-12 20:26N 54°34' E 011°56'0 0.0
2019-Aug-12 19:56N 54°34' E 011°56'0 0.0
2019-Aug-12 19:26N 54°34' E 011°56'0 0.0
2019-Aug-12 18:59N 54°34' E 011°56'0 0.2
2019-Aug-12 18:30N 54°34' E 011°56'2 4.2
2019-Aug-12 17:58N 54°32' E 011°58'2 5.1
2019-Aug-12 17:30N 54°31' E 012°01'5 4.0
2019-Aug-12 16:12N 54°26' E 012°01'1 5.8
2019-Aug-12 15:57N 54°25' E 011°60'2 3.7
2019-Aug-12 15:23N 54°22' E 011°60'1 3.9
2019-Aug-12 15:00N 54°21' E 012°01'2 3.3
2019-Aug-12 14:28N 54°20' E 012°02'4 4.1
2019-Aug-12 13:29N 54°16' E 012°05'2 5.0
2019-Aug-12 13:00N 54°13' E 012°05'3 5.1
2019-Aug-12 12:29N 54°11' E 012°06'3 5.0
2019-Aug-12 11:56N 54°08' E 012°06'2 5.5
2019-Aug-12 11:30N 54°06' E 012°07'1 0.4
2019-Aug-12 10:12N 54°06' E 012°08'0 0.0
2019-Aug-12 10:00N 54°06' E 012°08'0 0.0
2019-Aug-12 09:12N 54°06' E 012°08'0 0.0
2019-Aug-12 09:00N 54°06' E 012°08'0 0.0
2019-Aug-12 08:30N 54°06' E 012°08'  

Dump ship's entire track history